KHRX

Hereford Municipal Airport

Hereford, Texas, USA
METAR KHRX 160055Z AUTO 21008KT 10SM CLR 09/M12 A3013 RMK AO2 T00941116
Observed Flight Rules
Dec-16 @ 00:55 UTC (21 minutes ago) Visual Flight Rules
Wind Visibility Clouds
210° at 8 knots 10 miles
  • Clear skies
Temperatures Readings
Current 9°C / 48°F
Dewpoint -12°C / 10°F
Humidity 21%
Altimeter 30.13" Hg
Pressure 1020 hPa
Elevation 1154
METAR KHRX 160055Z AUTO 21008KT 10SM CLR 09/M12 A3013 RMK AO2 T00941116
Observed Flight Rules
Dec-16 @ 00:55 UTC
(21 minutes ago)
VFR
Wind Visibility
210° at 8 knots 10 miles
Clouds
  • Clear skies
Temperature Dewpoint
9°C / 48°F -12°C / 10°F
Humidity Altimeter Pressure
21% 30.13" Hg 1020 hPa